createdAt,value
2017-12-21T00:00:28.420Z,7.92
2017-12-21T00:01:28.308Z,7.85
2017-12-21T00:03:21.576Z,7.74
2017-12-21T00:04:21.486Z,7.78
2017-12-21T00:06:14.737Z,7.98
2017-12-21T00:07:14.666Z,7.91
2017-12-21T00:09:07.943Z,7.86
2017-12-21T00:10:07.855Z,7.82
2017-12-21T00:12:01.227Z,7.75
2017-12-21T00:13:01.045Z,7.74
2017-12-21T00:14:54.402Z,7.88
2017-12-21T00:15:54.308Z,7.88
2017-12-21T00:17:47.586Z,7.85
2017-12-21T00:18:47.510Z,7.75
2017-12-21T00:20:40.749Z,7.83
2017-12-21T00:21:40.679Z,7.77
2017-12-21T00:23:33.957Z,7.85
2017-12-21T00:24:33.871Z,7.83
2017-12-21T00:26:27.129Z,7.75
2017-12-21T00:27:27.062Z,7.75
2017-12-21T00:29:20.447Z,7.86
2017-12-21T00:30:20.241Z,7.86
2017-12-21T00:32:13.500Z,7.98
2017-12-21T00:33:13.431Z,7.95
2017-12-21T00:35:06.716Z,7.98
2017-12-21T00:36:06.625Z,7.82
2017-12-21T00:37:59.892Z,7.88
2017-12-21T00:38:59.804Z,7.92
2017-12-21T00:40:53.068Z,7.92
2017-12-21T00:41:52.998Z,7.96
2017-12-21T00:43:46.270Z,7.98
2017-12-21T00:44:46.187Z,7.93
2017-12-21T00:46:39.448Z,7.96
2017-12-21T00:47:39.376Z,7.93
2017-12-21T00:49:32.655Z,8.01
2017-12-21T00:50:32.567Z,8.04
2017-12-21T00:52:25.837Z,8.11
2017-12-21T00:53:25.759Z,8.01
2017-12-21T00:55:19.036Z,7.98
2017-12-21T00:56:18.951Z,7.98
2017-12-21T00:58:12.225Z,8.04
2017-12-21T00:59:12.139Z,8.07
2017-12-21T01:01:05.400Z,8.03
2017-12-21T01:02:05.333Z,8.10
2017-12-21T01:03:58.632Z,8.07
2017-12-21T01:04:58.522Z,8.04
2017-12-21T01:06:51.780Z,8.01
2017-12-21T01:07:51.713Z,7.99
2017-12-21T01:09:44.987Z,8.03
2017-12-21T01:10:44.895Z,7.98
2017-12-21T01:12:38.162Z,7.99
2017-12-21T01:13:38.093Z,8.04
2017-12-21T01:15:31.368Z,7.96
2017-12-21T01:16:31.285Z,7.99
2017-12-21T01:18:24.562Z,8.01
2017-12-21T01:19:24.475Z,8.04
2017-12-21T01:21:17.737Z,8.03
2017-12-21T01:22:17.668Z,8.06
2017-12-21T01:24:10.937Z,8.09
2017-12-21T01:25:10.849Z,8.11
2017-12-21T01:27:04.105Z,8.03
2017-12-21T01:28:04.041Z,7.95
2017-12-21T01:29:57.310Z,7.95
2017-12-21T01:30:57.221Z,8.06
2017-12-21T01:32:50.486Z,8.04
2017-12-21T01:33:50.411Z,7.98
2017-12-21T01:35:43.690Z,8.13
2017-12-21T01:36:43.604Z,8.07
2017-12-21T01:38:36.876Z,8.06
2017-12-21T01:39:36.791Z,8.09
2017-12-21T01:41:30.047Z,7.99
2017-12-21T01:42:29.975Z,8.06
2017-12-21T01:44:23.257Z,8.07
2017-12-21T01:45:23.167Z,8.16
2017-12-21T01:47:16.417Z,8.11
2017-12-21T01:48:16.348Z,7.98
2017-12-21T01:50:09.616Z,8.14
2017-12-21T01:51:09.528Z,8.10
2017-12-21T01:53:02.805Z,8.14
2017-12-21T01:54:02.718Z,8.11
2017-12-21T01:55:55.998Z,8.09
2017-12-21T01:56:55.909Z,8.07
2017-12-21T01:58:49.187Z,8.11
2017-12-21T01:59:49.101Z,8.10
2017-12-21T02:01:42.380Z,8.14
2017-12-21T02:02:42.311Z,8.11
2017-12-21T02:04:35.591Z,8.13
2017-12-21T02:05:35.500Z,8.11
2017-12-21T02:07:28.870Z,8.14
2017-12-21T02:08:28.680Z,8.07
2017-12-21T02:10:22.066Z,8.16
2017-12-21T02:11:21.861Z,8.10
2017-12-21T02:13:15.157Z,8.03
2017-12-21T02:14:15.052Z,8.09
2017-12-21T02:16:08.379Z,8.04
2017-12-21T02:17:08.309Z,8.14
2017-12-21T02:19:01.586Z,7.99
2017-12-21T02:20:01.500Z,8.11
2017-12-21T02:21:54.867Z,8.13
2017-12-21T02:22:54.675Z,8.10
2017-12-21T02:24:47.959Z,8.07
2017-12-21T02:25:47.868Z,8.13
2017-12-21T02:27:41.237Z,8.07
2017-12-21T02:28:41.057Z,8.19
2017-12-21T02:30:34.403Z,8.10
2017-12-21T02:31:34.310Z,8.11
2017-12-21T02:33:27.633Z,8.11
2017-12-21T02:34:27.502Z,8.11
2017-12-21T02:36:20.760Z,8.14
2017-12-21T02:37:20.717Z,8.11
2017-12-21T02:39:13.963Z,8.14
2017-12-21T02:40:13.876Z,8.10
2017-12-21T02:42:07.134Z,8.11
2017-12-21T02:43:07.066Z,8.16
2017-12-21T02:45:00.396Z,8.16
2017-12-21T02:46:00.310Z,8.14
2017-12-21T02:47:53.682Z,8.24
2017-12-21T02:48:53.504Z,8.21
2017-12-21T02:50:46.888Z,8.22
2017-12-21T02:51:46.691Z,8.19
2017-12-21T02:53:40.114Z,8.17
2017-12-21T02:54:39.882Z,8.14
2017-12-21T02:56:33.141Z,8.14
2017-12-21T02:57:33.072Z,8.19
2017-12-21T02:59:26.397Z,8.21
2017-12-21T03:00:26.308Z,8.10
2017-12-21T03:02:19.572Z,8.09
2017-12-21T03:03:19.502Z,8.13
2017-12-21T03:05:12.784Z,8.22
2017-12-21T03:06:12.695Z,8.22
2017-12-21T03:08:05.953Z,8.07
2017-12-21T03:09:05.882Z,8.16
2017-12-21T03:10:59.163Z,8.07
2017-12-21T03:11:59.074Z,8.13
2017-12-21T03:13:52.399Z,8.14
2017-12-21T03:14:52.313Z,8.17
2017-12-21T03:16:45.568Z,8.22
2017-12-21T03:17:45.500Z,8.22
2017-12-21T03:19:38.783Z,8.17
2017-12-21T03:20:38.697Z,8.11
2017-12-21T03:22:32.563Z,8.22
2017-12-21T03:23:31.884Z,8.22
2017-12-21T03:25:25.166Z,8.24
2017-12-21T03:26:25.078Z,8.17
2017-12-21T03:28:18.378Z,8.17
2017-12-21T03:29:18.310Z,8.21
2017-12-21T03:31:11.585Z,8.24
2017-12-21T03:32:11.503Z,8.24
2017-12-21T03:34:04.779Z,8.17
2017-12-21T03:35:04.689Z,8.22
2017-12-21T03:36:57.943Z,8.22
2017-12-21T03:37:57.870Z,8.25
2017-12-21T03:39:51.252Z,8.16
2017-12-21T03:40:51.062Z,8.14
2017-12-21T03:42:44.379Z,8.13
2017-12-21T03:43:44.307Z,8.11
2017-12-21T03:45:37.590Z,8.13
2017-12-21T03:46:37.504Z,8.17
2017-12-21T03:48:30.763Z,8.17
2017-12-21T03:49:30.694Z,8.07
2017-12-21T03:51:23.969Z,8.16
2017-12-21T03:52:23.872Z,8.21
2017-12-21T03:54:17.259Z,8.11
2017-12-21T03:55:17.063Z,8.09
2017-12-21T03:57:10.377Z,8.17
2017-12-21T03:58:10.310Z,8.22
2017-12-21T04:00:03.580Z,8.24
2017-12-21T04:01:03.488Z,8.14
2017-12-21T04:02:56.753Z,8.14
2017-12-21T04:03:56.680Z,8.13
2017-12-21T04:05:50.064Z,8.19
2017-12-21T04:06:49.869Z,8.19
2017-12-21T04:08:43.130Z,8.09
2017-12-21T04:09:43.061Z,8.07
2017-12-21T04:11:36.399Z,8.10
2017-12-21T04:12:36.309Z,8.10
2017-12-21T04:14:29.696Z,8.10
2017-12-21T04:15:29.502Z,8.09
2017-12-21T04:17:22.761Z,8.11
2017-12-21T04:18:22.692Z,8.03
2017-12-21T04:20:15.972Z,8.03
2017-12-21T04:21:15.884Z,8.10
2017-12-21T04:23:09.146Z,8.11
2017-12-21T04:24:09.076Z,8.11
2017-12-21T04:26:03.357Z,8.11
2017-12-21T04:27:03.267Z,8.06
2017-12-21T04:28:56.532Z,8.09
2017-12-21T04:29:56.455Z,8.06
2017-12-21T04:31:49.847Z,8.06
2017-12-21T04:32:49.645Z,8.10
2017-12-21T04:34:43.034Z,8.10
2017-12-21T04:35:42.836Z,8.10
2017-12-21T04:37:36.097Z,8.01
2017-12-21T04:38:36.032Z,8.04
2017-12-21T04:40:29.304Z,8.11
2017-12-21T04:41:29.214Z,8.04
2017-12-21T04:43:22.581Z,8.10
2017-12-21T04:44:22.418Z,8.07
2017-12-21T04:46:15.685Z,8.01
2017-12-21T04:47:15.596Z,7.99
2017-12-21T04:49:08.849Z,8.04
2017-12-21T04:50:08.776Z,7.98
2017-12-21T04:52:02.064Z,7.96
2017-12-21T04:53:01.976Z,7.95
2017-12-21T04:54:55.254Z,8.01
2017-12-21T04:55:55.164Z,8.03
2017-12-21T04:57:48.415Z,8.01
2017-12-21T04:58:48.344Z,7.95
2017-12-21T05:00:41.728Z,7.85
2017-12-21T05:01:41.531Z,7.99
2017-12-21T05:03:34.792Z,7.89
2017-12-21T05:04:34.722Z,7.92
2017-12-21T05:06:28.002Z,7.98
2017-12-21T05:07:27.913Z,7.95
2017-12-21T05:09:21.164Z,8.01
2017-12-21T05:10:21.093Z,7.98
2017-12-21T05:12:14.474Z,7.95
2017-12-21T05:13:14.309Z,8.01
2017-12-21T05:15:07.603Z,8.01
2017-12-21T05:16:07.495Z,7.91
2017-12-21T05:18:00.754Z,7.98
2017-12-21T05:19:00.687Z,8.01
2017-12-21T05:20:53.964Z,7.91
2017-12-21T05:21:53.876Z,7.96
2017-12-21T05:23:47.134Z,7.98
2017-12-21T05:24:47.066Z,7.92
2017-12-21T05:26:40.402Z,7.83
2017-12-21T05:27:40.315Z,7.98
2017-12-21T05:29:33.676Z,7.93
2017-12-21T05:30:33.493Z,7.93
2017-12-21T05:32:26.774Z,7.96
2017-12-21T05:33:26.681Z,7.99
2017-12-21T05:35:19.949Z,7.92
2017-12-21T05:36:19.864Z,7.88
2017-12-21T05:38:13.122Z,7.91
2017-12-21T05:39:13.046Z,7.96
2017-12-21T05:41:06.396Z,7.82
2017-12-21T05:42:06.309Z,7.93
2017-12-21T05:43:59.567Z,7.93
2017-12-21T05:44:59.497Z,7.92
2017-12-21T05:46:52.778Z,7.92
2017-12-21T05:47:52.689Z,7.98
2017-12-21T05:49:45.941Z,7.89
2017-12-21T05:50:45.871Z,7.85
2017-12-21T05:52:39.145Z,7.98
2017-12-21T05:53:39.057Z,7.95
2017-12-21T05:55:32.396Z,7.96
2017-12-21T05:56:32.309Z,7.96
2017-12-21T05:58:25.570Z,7.88
2017-12-21T05:59:25.496Z,7.91
2017-12-21T06:01:18.772Z,7.85
2017-12-21T06:02:18.684Z,7.93
2017-12-21T06:04:11.942Z,7.99
2017-12-21T06:05:11.872Z,7.93
2017-12-21T06:07:05.150Z,7.83
2017-12-21T06:08:05.062Z,7.93
2017-12-21T06:09:58.381Z,7.96
2017-12-21T06:10:58.308Z,7.95
2017-12-21T06:12:51.591Z,7.93
2017-12-21T06:13:51.504Z,7.89
2017-12-21T06:15:44.887Z,7.96
2017-12-21T06:16:44.686Z,7.95
2017-12-21T06:18:37.945Z,7.86
2017-12-21T06:19:37.875Z,7.86
2017-12-21T06:21:31.151Z,7.93
2017-12-21T06:22:31.064Z,7.99
2017-12-21T06:24:24.434Z,7.91
2017-12-21T06:25:24.303Z,7.88
2017-12-21T06:27:17.693Z,7.93
2017-12-21T06:28:17.495Z,7.98
2017-12-21T06:30:10.742Z,7.89
2017-12-21T06:31:10.675Z,7.99
2017-12-21T06:33:03.949Z,7.96
2017-12-21T06:34:03.861Z,7.96
2017-12-21T06:35:57.142Z,7.88
2017-12-21T06:36:57.054Z,7.83
2017-12-21T06:38:50.421Z,7.89
2017-12-21T06:39:50.305Z,7.93
2017-12-21T06:41:43.579Z,7.93
2017-12-21T06:42:43.492Z,7.93
2017-12-21T06:44:36.772Z,7.98
2017-12-21T06:45:36.704Z,8.01
2017-12-21T06:47:29.987Z,8.01
2017-12-21T06:48:29.908Z,8.03
2017-12-21T06:50:23.151Z,7.99
2017-12-21T06:51:23.087Z,7.93
2017-12-21T06:53:16.472Z,8.03
2017-12-21T06:54:16.308Z,8.03
2017-12-21T06:56:09.582Z,8.04
2017-12-21T06:57:09.495Z,7.96
2017-12-21T06:59:02.752Z,7.93
2017-12-21T07:00:02.682Z,8.03
2017-12-21T07:01:55.960Z,7.96
2017-12-21T07:02:55.873Z,8.01
2017-12-21T07:04:49.128Z,8.01
2017-12-21T07:05:49.060Z,7.96
2017-12-21T07:07:42.398Z,8.04
2017-12-21T07:08:42.306Z,8.03
2017-12-21T07:10:35.672Z,8.04
2017-12-21T07:11:35.482Z,8.04
2017-12-21T07:13:28.746Z,8.11
2017-12-21T07:14:28.660Z,8.03
2017-12-21T07:16:21.934Z,7.92
2017-12-21T07:17:21.836Z,8.04
2017-12-21T07:19:15.085Z,8.01
2017-12-21T07:20:15.015Z,8.04
2017-12-21T07:22:08.400Z,8.10
2017-12-21T07:23:08.192Z,8.04
2017-12-21T07:25:01.443Z,8.03
2017-12-21T07:26:01.374Z,8.07
2017-12-21T07:27:54.640Z,8.03
2017-12-21T07:28:54.548Z,8.13
2017-12-21T07:30:47.798Z,7.95
2017-12-21T07:31:47.726Z,8.06
2017-12-21T07:33:41.000Z,8.10
2017-12-21T07:34:40.911Z,8.07
2017-12-21T07:36:34.177Z,8.06
2017-12-21T07:37:34.087Z,8.07
2017-12-21T07:39:27.452Z,8.13
2017-12-21T07:40:27.272Z,8.06
2017-12-21T07:42:20.545Z,8.07
2017-12-21T07:43:20.460Z,8.06
2017-12-21T07:45:13.717Z,8.01
2017-12-21T07:46:13.648Z,8.06
2017-12-21T07:48:07.919Z,8.01
2017-12-21T07:49:07.826Z,8.10
2017-12-21T07:51:01.072Z,8.04
2017-12-21T07:52:01.004Z,7.99
2017-12-21T07:53:54.272Z,8.01
2017-12-21T07:54:54.179Z,8.13
2017-12-21T07:56:47.564Z,8.07
2017-12-21T07:57:47.361Z,8.06
2017-12-21T07:59:40.621Z,8.10
2017-12-21T08:00:40.551Z,8.01
2017-12-21T08:02:33.818Z,8.09
2017-12-21T08:03:33.728Z,8.09
2017-12-21T08:05:26.975Z,8.11
2017-12-21T08:06:26.910Z,8.14
2017-12-21T08:08:20.172Z,8.21
2017-12-21T08:09:20.084Z,8.09
2017-12-21T08:11:13.451Z,8.17
2017-12-21T08:12:13.261Z,8.25
2017-12-21T08:14:06.539Z,8.31
2017-12-21T08:15:06.464Z,8.31
2017-12-21T08:16:59.718Z,8.21
2017-12-21T08:17:59.626Z,8.24
2017-12-21T08:19:52.881Z,8.14
2017-12-21T08:20:52.812Z,8.21
2017-12-21T08:22:46.079Z,8.22
2017-12-21T08:23:45.989Z,8.19
2017-12-21T08:25:39.266Z,8.11
2017-12-21T08:26:39.198Z,8.13
2017-12-21T08:28:32.592Z,8.16
2017-12-21T08:29:32.375Z,8.24
2017-12-21T08:31:25.624Z,8.03
2017-12-21T08:32:25.556Z,8.21
2017-12-21T08:34:18.840Z,8.19
2017-12-21T08:35:18.752Z,8.17
2017-12-21T08:37:12.140Z,8.19
2017-12-21T08:38:11.931Z,8.25
2017-12-21T08:40:05.182Z,8.24
2017-12-21T08:41:05.117Z,8.21
2017-12-21T08:42:58.412Z,8.22
2017-12-21T08:43:58.324Z,8.32
2017-12-21T08:45:51.576Z,8.21
2017-12-21T08:46:51.496Z,8.31
2017-12-21T08:48:44.771Z,8.19
2017-12-21T08:49:44.681Z,8.24
2017-12-21T08:51:37.940Z,8.22
2017-12-21T08:52:37.871Z,8.29
2017-12-21T08:54:31.274Z,8.39
2017-12-21T08:55:31.050Z,8.35
2017-12-21T08:57:24.409Z,8.21
2017-12-21T08:58:24.327Z,8.36
2017-12-21T09:00:17.559Z,8.39
2017-12-21T09:01:17.490Z,8.35
2017-12-21T09:03:10.756Z,8.35
2017-12-21T09:04:10.668Z,8.34
2017-12-21T09:06:04.035Z,8.21
2017-12-21T09:07:03.861Z,8.22
2017-12-21T09:08:57.247Z,8.31
2017-12-21T09:09:57.038Z,8.32
2017-12-21T09:11:50.380Z,8.32
2017-12-21T09:12:50.308Z,8.26
2017-12-21T09:14:43.584Z,8.34
2017-12-21T09:15:43.497Z,8.19
2017-12-21T09:17:36.774Z,8.40
2017-12-21T09:18:36.687Z,8.29
2017-12-21T09:20:30.060Z,8.35
2017-12-21T09:21:29.868Z,8.34
2017-12-21T09:23:23.135Z,8.32
2017-12-21T09:24:23.046Z,8.34
2017-12-21T09:26:16.383Z,8.35
2017-12-21T09:27:16.311Z,8.32
2017-12-21T09:29:09.588Z,8.28
2017-12-21T09:30:09.500Z,8.32
2017-12-21T09:32:02.951Z,8.31
2017-12-21T09:33:02.881Z,8.36
2017-12-21T09:34:56.150Z,8.39
2017-12-21T09:35:56.065Z,8.32
2017-12-21T09:37:49.334Z,8.36
2017-12-21T09:38:49.246Z,8.46
2017-12-21T09:40:42.496Z,8.40
2017-12-21T09:41:42.425Z,8.49
2017-12-21T09:43:35.811Z,8.60
2017-12-21T09:44:35.621Z,8.53
2017-12-21T09:46:28.871Z,8.54
2017-12-21T09:47:28.798Z,8.50
2017-12-21T09:49:22.074Z,8.54
2017-12-21T09:50:21.978Z,8.58
2017-12-21T09:52:15.230Z,8.53
2017-12-21T09:53:15.159Z,8.58
2017-12-21T09:55:08.438Z,8.44
2017-12-21T09:56:08.349Z,8.54
2017-12-21T09:58:01.738Z,8.43
2017-12-21T09:59:01.531Z,8.39
2017-12-21T10:00:55.398Z,8.47
2017-12-21T10:01:54.709Z,8.44
2017-12-21T10:03:47.978Z,8.62
2017-12-21T10:04:47.895Z,8.58
2017-12-21T10:06:41.139Z,8.57
2017-12-21T10:07:41.070Z,8.60
2017-12-21T10:09:34.456Z,8.57
2017-12-21T10:10:34.314Z,8.53
2017-12-21T10:12:27.676Z,8.47
2017-12-21T10:13:27.491Z,8.58
2017-12-21T10:15:20.757Z,8.58
2017-12-21T10:16:20.671Z,8.53
2017-12-21T10:18:13.942Z,8.53
2017-12-21T10:19:13.854Z,8.58
2017-12-21T10:21:07.103Z,8.54
2017-12-21T10:22:07.033Z,8.52
2017-12-21T10:24:00.398Z,8.57
2017-12-21T10:25:00.311Z,8.54
2017-12-21T10:26:53.567Z,8.58
2017-12-21T10:27:53.494Z,8.57
2017-12-21T10:29:46.763Z,8.52
2017-12-21T10:30:46.676Z,8.44
2017-12-21T10:32:39.924Z,8.44
2017-12-21T10:33:39.855Z,8.44
2017-12-21T10:35:33.125Z,8.46
2017-12-21T10:36:33.034Z,8.47
2017-12-21T10:38:26.403Z,8.54
2017-12-21T10:39:26.310Z,8.54
2017-12-21T10:41:19.564Z,8.60
2017-12-21T10:42:19.495Z,8.60
2017-12-21T10:44:12.761Z,8.68
2017-12-21T10:45:12.673Z,8.62
2017-12-21T10:47:06.043Z,8.67
2017-12-21T10:48:05.855Z,8.72
2017-12-21T10:49:59.122Z,8.60
2017-12-21T10:50:59.036Z,8.58
2017-12-21T10:52:52.379Z,8.62
2017-12-21T10:53:52.311Z,8.60
2017-12-21T10:55:45.578Z,8.67
2017-12-21T10:56:45.492Z,8.68
2017-12-21T10:58:38.893Z,8.72
2017-12-21T10:59:38.684Z,8.71
2017-12-21T11:01:32.553Z,8.76
2017-12-21T11:02:31.873Z,8.79
2017-12-21T11:04:25.142Z,8.80
2017-12-21T11:05:25.051Z,8.83
2017-12-21T11:07:18.380Z,8.72
2017-12-21T11:08:18.318Z,8.71
2017-12-21T11:10:11.698Z,8.79
2017-12-21T11:11:11.494Z,8.85
2017-12-21T11:13:04.754Z,8.79
2017-12-21T11:14:04.683Z,8.77
2017-12-21T11:15:58.074Z,8.83
2017-12-21T11:16:57.857Z,8.95
2017-12-21T11:18:51.133Z,8.86
2017-12-21T11:19:51.044Z,8.89
2017-12-21T11:21:44.382Z,8.83
2017-12-21T11:22:44.312Z,8.90
2017-12-21T11:24:37.581Z,8.85
2017-12-21T11:25:37.494Z,9.03
2017-12-21T11:27:30.743Z,9.03
2017-12-21T11:28:30.676Z,9.03
2017-12-21T11:30:23.944Z,9.01
2017-12-21T11:31:23.857Z,9.08
2017-12-21T11:33:17.223Z,9.05
2017-12-21T11:34:17.041Z,9.05
2017-12-21T11:36:10.424Z,9.05
2017-12-21T11:37:10.312Z,8.98
2017-12-21T11:39:04.428Z,9.05
2017-12-21T11:40:04.341Z,9.01
2017-12-21T11:41:57.594Z,9.05
2017-12-21T11:42:57.520Z,8.98
2017-12-21T11:44:50.917Z,8.85
2017-12-21T11:45:50.702Z,9.00
2017-12-21T11:47:43.954Z,9.01
2017-12-21T11:48:43.883Z,8.95
2017-12-21T11:50:37.151Z,8.98
2017-12-21T11:51:37.064Z,9.09
2017-12-21T11:53:30.384Z,9.11
2017-12-21T11:54:30.315Z,9.03
2017-12-21T11:56:23.707Z,9.09
2017-12-21T11:57:23.493Z,9.17
2017-12-21T11:59:16.879Z,9.09
2017-12-21T12:00:16.707Z,9.05
2017-12-21T12:02:09.968Z,9.23
2017-12-21T12:03:09.901Z,9.21
2017-12-21T12:05:03.179Z,9.23
2017-12-21T12:06:03.095Z,9.20
2017-12-21T12:07:56.462Z,9.17
2017-12-21T12:08:56.308Z,9.11
2017-12-21T12:10:49.699Z,9.19
2017-12-21T12:11:49.490Z,9.21
2017-12-21T12:13:42.859Z,9.11
2017-12-21T12:14:42.676Z,9.04
2017-12-21T12:16:36.061Z,9.05
2017-12-21T12:17:35.857Z,9.01
2017-12-21T12:19:29.244Z,9.08
2017-12-21T12:20:29.041Z,9.05
2017-12-21T12:22:22.378Z,9.12
2017-12-21T12:23:22.311Z,9.14
2017-12-21T12:25:15.703Z,9.17
2017-12-21T12:26:15.493Z,9.26
2017-12-21T12:28:08.769Z,9.24
2017-12-21T12:29:08.696Z,9.17
2017-12-21T12:31:02.085Z,9.24
2017-12-21T12:32:01.878Z,9.20
2017-12-21T12:33:55.247Z,9.21
2017-12-21T12:34:55.060Z,9.29
2017-12-21T12:36:48.399Z,9.32
2017-12-21T12:37:48.311Z,9.27
2017-12-21T12:39:41.582Z,9.39
2017-12-21T12:40:41.493Z,9.37
2017-12-21T12:42:34.863Z,9.41
2017-12-21T12:43:34.675Z,9.39
2017-12-21T12:45:28.060Z,9.30
2017-12-21T12:46:27.866Z,9.32
2017-12-21T12:48:21.113Z,9.38
2017-12-21T12:49:21.038Z,9.37
2017-12-21T12:51:14.400Z,9.47
2017-12-21T12:52:14.318Z,9.42
2017-12-21T12:54:07.567Z,9.53
2017-12-21T12:55:07.495Z,9.44
2017-12-21T12:57:00.885Z,9.34
2017-12-21T12:58:00.682Z,9.38
2017-12-21T12:59:53.954Z,9.44
2017-12-21T13:00:53.860Z,9.38
2017-12-21T13:02:47.123Z,9.42
2017-12-21T13:03:47.055Z,9.44
2017-12-21T13:05:40.402Z,9.39
2017-12-21T13:06:40.314Z,9.42
2017-12-21T13:08:34.433Z,9.48
2017-12-21T13:09:34.366Z,9.50
2017-12-21T13:11:27.638Z,9.44
2017-12-21T13:12:27.548Z,9.47
2017-12-21T13:14:20.914Z,9.44
2017-12-21T13:15:20.740Z,9.48
2017-12-21T13:17:14.128Z,9.47
2017-12-21T13:18:13.927Z,9.50
2017-12-21T13:20:07.223Z,9.44
2017-12-21T13:21:07.138Z,9.47
2017-12-21T13:23:00.389Z,9.44
2017-12-21T13:24:00.319Z,9.45
2017-12-21T13:25:53.582Z,9.47
2017-12-21T13:26:53.501Z,9.56
2017-12-21T13:28:46.870Z,9.60
2017-12-21T13:29:46.686Z,9.45
2017-12-21T13:31:39.962Z,9.56
2017-12-21T13:32:39.886Z,9.62
2017-12-21T13:34:33.139Z,9.60
2017-12-21T13:35:33.073Z,9.59
2017-12-21T13:37:26.461Z,9.63
2017-12-21T13:38:26.313Z,9.52
2017-12-21T13:40:19.705Z,9.47
2017-12-21T13:41:19.509Z,9.47
2017-12-21T13:43:12.761Z,9.48
2017-12-21T13:44:12.692Z,9.42
2017-12-21T13:46:06.078Z,9.39
2017-12-21T13:47:05.876Z,9.39
2017-12-21T13:48:59.127Z,9.52
2017-12-21T13:49:59.059Z,9.41
2017-12-21T13:51:52.398Z,9.39
2017-12-21T13:52:52.314Z,9.30
2017-12-21T13:54:45.564Z,9.42
2017-12-21T13:55:45.496Z,9.47
2017-12-21T13:57:38.789Z,9.45
2017-12-21T13:58:38.703Z,9.55
2017-12-21T14:00:31.972Z,9.52
2017-12-21T14:01:31.881Z,9.52
2017-12-21T14:03:25.135Z,9.38
2017-12-21T14:04:25.069Z,9.45
2017-12-21T14:06:18.402Z,9.45
2017-12-21T14:07:18.314Z,9.42
2017-12-21T14:09:11.684Z,9.37
2017-12-21T14:10:11.498Z,9.39
2017-12-21T14:12:05.777Z,9.37
2017-12-21T14:13:05.692Z,9.41
2017-12-21T14:14:58.943Z,9.32
2017-12-21T14:15:58.872Z,9.39
2017-12-21T14:17:52.141Z,9.29
2017-12-21T14:18:52.055Z,9.38
2017-12-21T14:20:45.337Z,9.34
2017-12-21T14:21:45.244Z,9.37
2017-12-21T14:23:38.615Z,9.35
2017-12-21T14:24:38.440Z,9.47
2017-12-21T14:26:31.713Z,9.45
2017-12-21T14:27:31.624Z,9.48
2017-12-21T14:29:24.875Z,9.48
2017-12-21T14:30:24.805Z,9.53
2017-12-21T14:32:18.074Z,9.44
2017-12-21T14:33:17.986Z,9.45
2017-12-21T14:35:11.237Z,9.50
2017-12-21T14:36:11.168Z,9.45
2017-12-21T14:38:04.439Z,9.45
2017-12-21T14:39:04.357Z,9.50
2017-12-21T14:40:57.624Z,9.41
2017-12-21T14:41:57.538Z,9.37
2017-12-21T14:43:50.797Z,9.39
2017-12-21T14:44:50.729Z,9.39
2017-12-21T14:46:43.997Z,9.38
2017-12-21T14:47:43.911Z,9.47
2017-12-21T14:49:37.174Z,9.45
2017-12-21T14:50:37.105Z,9.52
2017-12-21T14:52:30.401Z,9.35
2017-12-21T14:53:30.314Z,9.39
2017-12-21T14:55:23.566Z,9.45
2017-12-21T14:56:23.496Z,9.32
2017-12-21T14:58:16.767Z,9.44
2017-12-21T14:59:16.679Z,9.39
2017-12-21T15:01:10.065Z,9.35
2017-12-21T15:02:09.892Z,9.37
2017-12-21T15:04:03.145Z,9.38
2017-12-21T15:05:03.076Z,9.38
2017-12-21T15:06:56.403Z,9.26
2017-12-21T15:07:56.311Z,9.32
2017-12-21T15:09:49.567Z,9.29
2017-12-21T15:10:49.496Z,9.32
2017-12-21T15:12:42.786Z,9.21
2017-12-21T15:13:42.698Z,9.34
2017-12-21T15:15:35.948Z,9.26
2017-12-21T15:16:35.880Z,9.30
2017-12-21T15:18:29.269Z,9.26
2017-12-21T15:19:29.060Z,9.34
2017-12-21T15:21:22.400Z,9.32
2017-12-21T15:22:22.317Z,9.38
2017-12-21T15:24:15.569Z,9.29
2017-12-21T15:25:15.502Z,9.24
2017-12-21T15:27:08.774Z,9.17
2017-12-21T15:28:08.685Z,9.20
2017-12-21T15:30:01.936Z,9.29
2017-12-21T15:31:01.868Z,9.32
2017-12-21T15:32:55.140Z,9.27
2017-12-21T15:33:55.048Z,9.37
2017-12-21T15:35:48.416Z,9.23
2017-12-21T15:36:48.309Z,9.29
2017-12-21T15:38:41.700Z,9.30
2017-12-21T15:39:41.501Z,9.32
2017-12-21T15:41:34.766Z,9.17
2017-12-21T15:42:34.681Z,9.19
2017-12-21T15:44:28.046Z,9.24
2017-12-21T15:45:27.862Z,9.23
2017-12-21T15:47:21.248Z,9.21
2017-12-21T15:48:21.041Z,9.21
2017-12-21T15:50:14.407Z,9.19
2017-12-21T15:51:14.318Z,9.19
2017-12-21T15:53:07.584Z,9.23
2017-12-21T15:54:07.497Z,9.23
2017-12-21T15:56:00.752Z,9.23
2017-12-21T15:57:00.681Z,9.09
2017-12-21T15:58:53.945Z,9.26
2017-12-21T15:59:53.861Z,9.16
2017-12-21T16:01:47.134Z,9.17
2017-12-21T16:02:47.045Z,9.16
2017-12-21T16:04:41.295Z,9.26
2017-12-21T16:05:41.228Z,9.21
2017-12-21T16:07:34.613Z,9.19
2017-12-21T16:08:34.421Z,9.19
2017-12-21T16:10:27.668Z,9.14
2017-12-21T16:11:27.596Z,9.12
2017-12-21T16:13:21.872Z,9.12
2017-12-21T16:14:21.783Z,9.17
2017-12-21T16:16:15.055Z,9.11
2017-12-21T16:17:14.963Z,9.01
2017-12-21T16:19:08.234Z,9.04
2017-12-21T16:20:08.152Z,9.11
2017-12-21T16:22:01.418Z,9.11
2017-12-21T16:23:01.332Z,9.08
2017-12-21T16:24:54.582Z,9.09
2017-12-21T16:25:54.513Z,8.97
2017-12-21T16:27:47.786Z,9.12
2017-12-21T16:28:47.695Z,9.09
2017-12-21T16:30:40.949Z,9.03
2017-12-21T16:31:40.876Z,9.03
2017-12-21T16:33:34.147Z,9.17
2017-12-21T16:34:34.058Z,9.09
2017-12-21T16:36:27.351Z,9.08
2017-12-21T16:37:27.240Z,9.09
2017-12-21T16:39:20.491Z,9.08
2017-12-21T16:40:20.423Z,9.05
2017-12-21T16:42:13.692Z,9.00
2017-12-21T16:43:13.604Z,8.95
2017-12-21T16:45:06.861Z,9.01
2017-12-21T16:46:06.789Z,9.08
2017-12-21T16:48:00.056Z,9.04
2017-12-21T16:48:59.970Z,8.94
2017-12-21T16:50:53.332Z,9.09
2017-12-21T16:51:53.150Z,9.09
2017-12-21T16:53:46.418Z,9.04
2017-12-21T16:54:46.335Z,9.08
2017-12-21T16:56:39.605Z,9.12
2017-12-21T16:57:39.512Z,9.04
2017-12-21T16:59:32.766Z,9.09
2017-12-21T17:00:32.700Z,9.08
2017-12-21T17:02:25.989Z,9.01
2017-12-21T17:03:25.878Z,9.04
2017-12-21T17:05:19.130Z,9.11
2017-12-21T17:06:19.061Z,9.05
2017-12-21T17:08:12.403Z,9.11
2017-12-21T17:09:12.315Z,9.17
2017-12-21T17:11:05.594Z,9.12
2017-12-21T17:12:05.496Z,9.09
2017-12-21T17:13:58.764Z,9.20
2017-12-21T17:14:58.673Z,9.14
2017-12-21T17:16:51.958Z,9.11
2017-12-21T17:17:51.870Z,9.08
2017-12-21T17:19:45.240Z,9.00
2017-12-21T17:20:45.055Z,9.00
2017-12-21T17:22:38.404Z,9.05
2017-12-21T17:23:38.316Z,9.00
2017-12-21T17:25:31.568Z,9.04
2017-12-21T17:26:31.536Z,9.04
2017-12-21T17:28:24.919Z,9.05
2017-12-21T17:29:24.679Z,9.04
2017-12-21T17:31:17.930Z,9.04
2017-12-21T17:32:17.865Z,9.03
2017-12-21T17:34:11.160Z,9.04
2017-12-21T17:35:11.075Z,9.08
2017-12-21T17:37:04.404Z,9.04
2017-12-21T17:38:04.318Z,9.05
2017-12-21T17:39:57.769Z,9.08
2017-12-21T17:40:57.497Z,9.04
2017-12-21T17:42:50.772Z,9.04
2017-12-21T17:43:50.679Z,9.08
2017-12-21T17:45:43.932Z,9.19
2017-12-21T17:46:43.865Z,9.17
2017-12-21T17:48:37.137Z,9.16
2017-12-21T17:49:37.067Z,9.12
2017-12-21T17:51:30.384Z,9.19
2017-12-21T17:52:30.336Z,9.20
2017-12-21T17:54:23.591Z,9.19
2017-12-21T17:55:23.499Z,9.19
2017-12-21T17:57:16.766Z,9.20
2017-12-21T17:58:16.679Z,9.19
2017-12-21T18:00:09.985Z,9.19
2017-12-21T18:01:09.896Z,9.24
2017-12-21T18:03:03.176Z,9.20
2017-12-21T18:04:03.077Z,9.21
2017-12-21T18:05:56.392Z,9.16
2017-12-21T18:06:56.327Z,9.16
2017-12-21T18:08:49.620Z,9.16
2017-12-21T18:09:49.509Z,9.19
2017-12-21T18:11:42.815Z,9.11
2017-12-21T18:12:42.746Z,8.98
2017-12-21T18:14:36.020Z,9.05
2017-12-21T18:15:35.933Z,9.08
2017-12-21T18:17:29.207Z,9.01
2017-12-21T18:18:29.121Z,9.04
2017-12-21T18:20:22.490Z,9.12
2017-12-21T18:21:22.315Z,9.03
2017-12-21T18:23:15.703Z,9.04
2017-12-21T18:24:15.498Z,9.04
2017-12-21T18:26:08.749Z,9.16
2017-12-21T18:27:08.683Z,9.05
2017-12-21T18:29:01.955Z,9.11
2017-12-21T18:30:01.858Z,9.14
2017-12-21T18:31:55.114Z,9.01
2017-12-21T18:32:55.042Z,9.04
2017-12-21T18:34:48.403Z,9.00
2017-12-21T18:35:48.317Z,8.85
2017-12-21T18:37:41.586Z,8.85
2017-12-21T18:38:41.500Z,8.90
2017-12-21T18:40:34.754Z,8.87
2017-12-21T18:41:34.687Z,8.92
2017-12-21T18:43:27.960Z,8.97
2017-12-21T18:44:27.868Z,8.90
2017-12-21T18:46:21.119Z,8.92
2017-12-21T18:47:21.065Z,8.85
2017-12-21T18:49:14.321Z,8.86
2017-12-21T18:50:14.233Z,8.89
2017-12-21T18:52:07.485Z,8.90
2017-12-21T18:53:07.416Z,8.90
2017-12-21T18:55:00.742Z,8.94
2017-12-21T18:56:00.601Z,8.97
2017-12-21T18:57:53.872Z,8.98
2017-12-21T18:58:53.787Z,9.03
2017-12-21T19:00:47.272Z,8.77
2017-12-21T19:01:47.002Z,8.83
2017-12-21T19:03:40.245Z,8.87
2017-12-21T19:04:40.177Z,8.94
2017-12-21T19:06:33.550Z,8.94
2017-12-21T19:07:33.359Z,8.90
2017-12-21T19:09:26.618Z,8.86
2017-12-21T19:10:26.543Z,8.90
2017-12-21T19:12:19.776Z,9.03